Time;durP1;ratioP1;P1;durP2;ratioP2;P2;SDS_P1;SDS_P2;PMS_P1;PMS_P2;Temp;Humidity;BMP_temperature;BMP_pressure;BME280_temperature;BME280_humidity;BME280_pressure;Samples;Min_cycle;Max_cycle;Signal;HPM_P1;HPM_P2
2021/10/14 00:01:34;;;;;;;13.18;6.75;;;7.80;99.90;;;;;;5055992;28;20021;-68
2021/10/14 00:03:59;;;;;;;10.15;6.55;;;7.90;99.90;;;;;;5055720;28;20144;-67
2021/10/14 00:06:25;;;;;;;14.93;7.13;;;7.80;99.90;;;;;;5055594;28;20131;-68
2021/10/14 00:08:51;;;;;;;13.60;6.72;;;8.00;99.90;;;;;;5055568;28;20041;-68
2021/10/14 00:11:18;;;;;;;12.57;6.88;;;7.90;99.90;;;;;;5055762;28;20044;-68
2021/10/14 00:13:44;;;;;;;17.73;7.70;;;7.80;99.90;;;;;;5071031;28;20025;-68
2021/10/14 00:16:11;;;;;;;15.93;7.47;;;7.70;99.90;;;;;;5055712;28;20478;-68
2021/10/14 00:18:37;;;;;;;16.25;8.30;;;7.70;99.90;;;;;;5054103;28;20053;-68
2021/10/14 00:21:03;;;;;;;13.30;7.53;;;7.60;99.90;;;;;;5054091;28;20405;-68
2021/10/14 00:23:28;;;;;;;12.73;7.65;;;7.60;99.90;;;;;;5055328;28;20382;-68
2021/10/14 00:25:54;;;;;;;13.10;7.90;;;7.60;99.90;;;;;;5055439;28;20037;-68
2021/10/14 00:28:20;;;;;;;12.70;7.70;;;7.60;99.90;;;;;;5055294;28;20032;-67
2021/10/14 00:30:46;;;;;;;13.18;7.65;;;7.60;99.90;;;;;;5055322;28;20136;-68
2021/10/14 00:33:12;;;;;;;13.75;7.80;;;7.60;99.90;;;;;;5054973;28;20116;-68
2021/10/14 00:35:37;;;;;;;14.73;8.25;;;7.60;99.90;;;;;;5055136;28;20029;-67
2021/10/14 00:38:03;;;;;;;14.35;7.65;;;7.60;99.90;;;;;;5053690;28;20033;-68
2021/10/14 00:40:30;;;;;;;16.45;7.68;;;7.60;99.90;;;;;;5055290;28;20025;-68
2021/10/14 00:42:56;;;;;;;14.30;8.07;;;7.60;99.90;;;;;;5054960;28;20025;-68
2021/10/14 00:45:22;;;;;;;16.33;8.13;;;7.60;99.90;;;;;;5054976;28;20036;-68
2021/10/14 00:47:48;;;;;;;16.90;8.63;;;7.60;99.90;;;;;;5054934;28;20036;-68
2021/10/14 00:50:14;;;;;;;14.10;7.72;;;7.60;99.90;;;;;;5055096;28;20119;-68
2021/10/14 00:52:43;;;;;;;12.30;7.57;;;7.60;99.90;;;;;;5053566;28;20108;-67
2021/10/14 00:55:14;;;;;;;18.00;7.82;;;7.50;99.90;;;;;;5053649;28;20359;-68
2021/10/14 00:57:40;;;;;;;12.48;8.02;;;7.60;99.90;;;;;;5055006;28;20029;-68
2021/10/14 01:00:08;;;;;;;15.93;8.65;;;7.50;99.90;;;;;;5054794;28;20040;-68
2021/10/14 01:02:33;;;;;;;15.95;8.85;;;7.50;99.90;;;;;;5053359;28;20419;-68
2021/10/14 01:04:59;;;;;;;14.45;9.48;;;7.50;99.90;;;;;;5054371;28;20033;-68
2021/10/14 01:07:25;;;;;;;15.95;8.90;;;7.50;99.90;;;;;;5054794;28;20029;-68
2021/10/14 01:09:51;;;;;;;15.55;8.60;;;7.50;99.90;;;;;;5052480;28;20515;-67
2021/10/14 01:12:18;;;;;;;17.85;8.50;;;7.50;99.90;;;;;;5053496;28;20025;-67
2021/10/14 01:14:44;;;;;;;16.77;8.00;;;7.50;99.90;;;;;;5054291;28;20037;-68
2021/10/14 01:17:10;;;;;;;20.10;8.70;;;7.50;99.90;;;;;;5053500;28;20029;-68
2021/10/14 01:19:43;;;;;;;18.02;8.50;;;7.50;99.90;;;;;;5052900;28;20041;-68
2021/10/14 01:22:10;;;;;;;15.55;9.02;;;7.50;99.90;;;;;;5054091;28;20086;-68
2021/10/14 01:24:36;;;;;;;12.75;8.05;;;7.50;99.90;;;;;;5054352;28;20485;-68
2021/10/14 01:27:07;;;;;;;13.82;8.98;;;7.60;99.90;;;;;;5053885;28;20040;-68
2021/10/14 01:29:34;;;;;;;;;;;7.60;99.90;;;;;;5053139;28;20056;-68
2021/10/14 01:32:04;;;;;;;12.82;7.65;;;7.50;99.90;;;;;;5054084;28;19912;-68
2021/10/14 01:34:31;;;;;;;14.52;8.07;;;7.40;99.90;;;;;;5054040;28;20045;-68
2021/10/14 01:36:56;;;;;;;22.50;8.50;;;7.30;99.90;;;;;;5053719;28;20120;-68
2021/10/14 01:39:22;;;;;;;14.13;7.57;;;7.30;99.90;;;;;;5052613;28;20179;-68
2021/10/14 01:41:49;;;;;;;15.80;8.82;;;7.30;99.90;;;;;;5053954;28;20410;-67
2021/10/14 01:44:15;;;;;;;14.65;8.68;;;7.20;99.90;;;;;;5053736;28;20033;-68
2021/10/14 01:46:41;;;;;;;14.80;7.93;;;7.10;99.90;;;;;;5053667;28;20076;-68
2021/10/14 01:49:07;;;;;;;19.27;9.38;;;7.10;99.90;;;;;;5052257;28;20056;-68
2021/10/14 01:51:33;;;;;;;13.65;7.82;;;7.10;99.90;;;;;;5053615;28;20481;-68
2021/10/14 01:53:59;;;;;;;19.42;8.75;;;7.10;99.90;;;;;;5053565;28;20036;-68
2021/10/14 01:56:24;;;;;;;14.88;8.77;;;7.00;99.90;;;;;;5053683;28;20526;-68
2021/10/14 01:58:50;;;;;;;19.30;8.90;;;7.00;99.90;;;;;;5052516;28;20086;-67
2021/10/14 02:01:16;;;;;;;14.05;7.57;;;7.00;99.90;;;;;;5053247;28;20025;-65
2021/10/14 02:03:42;;;;;;;17.40;9.50;;;6.90;99.90;;;;;;5053587;28;20084;-66
2021/10/14 02:06:07;;;;;;;14.50;8.35;;;6.90;99.90;;;;;;5053210;28;20025;-66
2021/10/14 02:08:33;;;;;;;17.08;9.70;;;6.90;99.90;;;;;;5053185;28;20041;-66
2021/10/14 02:10:59;;;;;;;19.90;10.25;;;6.90;99.90;;;;;;5053092;28;20040;-66
2021/10/14 02:13:25;;;;;;;24.10;9.82;;;6.90;99.90;;;;;;5053269;28;20025;-66
2021/10/14 02:15:50;;;;;;;22.08;10.75;;;6.80;99.90;;;;;;5051800;28;20041;-66
2021/10/14 02:18:16;;;;;;;19.65;11.10;;;6.70;99.90;;;;;;5053011;28;20053;-67
2021/10/14 02:20:42;;;;;;;22.13;11.23;;;6.80;99.90;;;;;;5051194;28;20178;-67
2021/10/14 02:23:08;;;;;;;14.45;9.32;;;6.80;99.90;;;;;;5052552;28;20033;-67
2021/10/14 02:25:33;;;;;;;14.93;8.57;;;6.80;99.90;;;;;;5051986;28;20462;-67
2021/10/14 02:27:59;;;;;;;15.80;8.82;;;6.80;99.90;;;;;;5051816;28;20033;-67
2021/10/14 02:30:25;;;;;;;13.80;8.85;;;6.90;99.90;;;;;;5052670;28;20037;-67
2021/10/14 02:32:51;;;;;;;16.42;8.98;;;6.80;99.90;;;;;;5053214;28;20036;-67
2021/10/14 02:35:16;;;;;;;18.55;9.77;;;6.80;99.90;;;;;;5051413;28;20047;-67
2021/10/14 02:37:42;;;;;;;16.20;8.80;;;6.80;99.90;;;;;;5052823;28;20389;-67
2021/10/14 02:40:09;;;;;;;17.30;9.88;;;6.70;99.90;;;;;;5052575;28;20039;-67
2021/10/14 02:42:35;;;;;;;19.95;9.43;;;6.70;99.90;;;;;;5052801;28;20072;-67
2021/10/14 02:45:01;;;;;;;17.95;9.32;;;6.70;99.90;;;;;;5051464;28;20029;-67
2021/10/14 02:47:26;;;;;;;19.52;10.77;;;6.80;99.90;;;;;;5052825;28;20092;-67
2021/10/14 02:49:52;;;;;;;20.48;9.80;;;6.70;99.90;;;;;;5052371;28;20036;-67
2021/10/14 02:52:18;;;;;;;17.35;9.27;;;6.70;99.90;;;;;;5052815;28;20033;-67
2021/10/14 02:54:43;;;;;;;16.77;9.02;;;6.70;99.90;;;;;;5051188;28;20044;-67
2021/10/14 02:57:09;;;;;;;14.70;9.07;;;6.70;99.90;;;;;;5052215;28;20393;-67
2021/10/14 02:59:35;;;;;;;19.85;9.73;;;6.70;99.90;;;;;;5051125;28;20064;-67
2021/10/14 03:02:01;;;;;;;17.13;8.90;;;6.60;99.90;;;;;;5052426;28;20428;-67
2021/10/14 03:04:26;;;;;;;15.32;8.93;;;6.60;99.90;;;;;;5052315;28;20036;-67
2021/10/14 03:06:52;;;;;;;20.90;9.25;;;6.60;99.90;;;;;;5052213;28;20496;-67
2021/10/14 03:09:18;;;;;;;19.50;9.15;;;6.60;99.90;;;;;;5052217;28;20078;-67
2021/10/14 03:11:44;;;;;;;21.50;8.50;;;6.60;99.90;;;;;;5052444;28;20033;-67
2021/10/14 03:14:09;;;;;;;15.70;7.63;;;6.60;99.90;;;;;;5052118;28;20037;-67
2021/10/14 03:16:35;;;;;;;17.60;9.68;;;6.60;99.90;;;;;;5051124;28;20033;-67
2021/10/14 03:19:01;;;;;;;19.67;8.98;;;6.60;99.90;;;;;;5052001;28;20080;-67
2021/10/14 03:21:27;;;;;;;16.08;9.85;;;6.60;99.90;;;;;;5052029;28;20136;-67
2021/10/14 03:23:52;;;;;;;17.77;9.65;;;6.70;99.90;;;;;;5052150;28;20040;-67
2021/10/14 03:26:18;;;;;;;30.30;11.35;;;6.70;99.90;;;;;;5052234;28;20112;-68
2021/10/14 03:28:44;;;;;;;19.90;10.73;;;6.60;99.90;;;;;;5052286;28;20484;-68
2021/10/14 03:31:10;;;;;;;17.92;8.50;;;6.60;99.90;;;;;;5050587;28;20111;-68
2021/10/14 03:33:36;;;;;;;19.92;8.90;;;6.70;99.90;;;;;;5057008;28;20150;-68
2021/10/14 03:36:04;;;;;;;20.23;9.68;;;6.80;99.90;;;;;;5058558;28;20037;-67
2021/10/14 03:38:30;;;;;;;16.40;8.70;;;6.70;99.90;;;;;;5058518;28;20056;-68
2021/10/14 03:40:56;;;;;;;15.52;8.05;;;6.80;99.90;;;;;;5057481;28;20037;-67
2021/10/14 03:43:21;;;;;;;17.80;9.15;;;6.70;99.90;;;;;;5058825;28;20021;-66
2021/10/14 03:45:47;;;;;;;17.02;8.85;;;6.60;99.90;;;;;;5057287;28;20029;-67
2021/10/14 03:48:13;;;;;;;18.50;9.07;;;6.60;99.90;;;;;;5057021;28;20025;-67
2021/10/14 03:50:39;;;;;;;16.10;9.15;;;6.60;99.90;;;;;;5058424;28;20033;-66
2021/10/14 03:53:04;;;;;;;22.10;9.77;;;6.60;99.90;;;;;;5058634;28;20036;-66
2021/10/14 03:55:30;;;;;;;21.17;10.57;;;6.50;99.90;;;;;;5058469;28;20495;-67
2021/10/14 03:57:56;;;;;;;18.13;9.88;;;6.60;99.90;;;;;;5058367;28;20527;-67
2021/10/14 04:00:22;;;;;;;27.65;9.73;;;6.60;99.90;;;;;;5057357;28;20029;-67
2021/10/14 04:02:48;;;;;;;17.90;10.43;;;6.60;99.90;;;;;;5058881;28;20088;-67
2021/10/14 04:05:14;;;;;;;25.63;10.18;;;6.60;99.90;;;;;;5056954;28;20118;-67
2021/10/14 04:07:40;;;;;;;15.95;9.40;;;6.50;99.90;;;;;;5058164;28;20044;-67
2021/10/14 04:10:07;;;;;;;18.65;9.50;;;6.60;99.90;;;;;;5057246;28;20425;-67
2021/10/14 04:12:33;;;;;;;19.55;10.38;;;6.60;99.90;;;;;;5057045;28;20036;-67
2021/10/14 04:14:59;;;;;;;18.58;9.48;;;6.60;99.90;;;;;;5057396;28;20044;-67
2021/10/14 04:17:25;;;;;;;22.35;10.38;;;6.60;99.90;;;;;;5058234;28;20033;-67
2021/10/14 04:19:51;;;;;;;19.20;9.68;;;6.60;99.90;;;;;;5058130;28;20049;-67
2021/10/14 04:22:17;;;;;;;22.17;10.82;;;6.70;99.90;;;;;;5058112;28;20033;-67
2021/10/14 04:24:45;;;;;;;20.58;9.85;;;6.60;99.90;;;;;;5058520;28;20123;-67
2021/10/14 04:27:11;;;;;;;20.20;10.27;;;6.60;99.90;;;;;;5058333;28;20614;-67
2021/10/14 04:29:37;;;;;;;24.77;10.68;;;6.60;99.90;;;;;;5058176;28;20041;-67
2021/10/14 04:32:08;;;;;;;18.75;10.20;;;6.60;99.90;;;;;;5056758;28;20452;-68
2021/10/14 04:34:35;;;;;;;26.38;11.25;;;6.60;99.90;;;;;;5058266;28;20112;-68
2021/10/14 04:37:03;;;;;;;18.83;9.30;;;6.60;99.90;;;;;;5058195;28;20087;-68
2021/10/14 04:39:29;;;;;;;20.67;10.65;;;6.60;99.90;;;;;;5056927;28;20033;-68
2021/10/14 04:41:55;;;;;;;21.23;10.43;;;6.60;99.90;;;;;;5058159;28;20067;-68
2021/10/14 04:44:20;;;;;;;19.30;9.88;;;6.60;99.90;;;;;;5054604;28;20056;-68
2021/10/14 04:46:46;;;;;;;17.45;8.93;;;6.70;99.90;;;;;;5055005;28;20025;-68
2021/10/14 04:49:12;;;;;;;19.02;9.27;;;6.80;99.90;;;;;;5053736;28;20099;-68
2021/10/14 04:51:37;;;;;;;15.02;8.13;;;6.80;99.90;;;;;;5055022;28;20029;-67
2021/10/14 04:54:03;;;;;;;17.60;9.38;;;6.80;99.90;;;;;;5054705;28;20075;-68
2021/10/14 04:56:29;;;;;;;17.38;9.38;;;6.80;99.90;;;;;;5054966;28;20032;-68
2021/10/14 04:58:55;;;;;;;20.17;9.27;;;6.80;99.90;;;;;;5053450;28;20386;-68
2021/10/14 05:01:21;;;;;;;18.15;9.27;;;6.90;99.90;;;;;;5054304;28;20133;-68
2021/10/14 05:03:46;;;;;;;14.30;9.30;;;6.80;99.90;;;;;;5054494;28;20051;-68
2021/10/14 05:06:12;;;;;;;17.80;9.48;;;6.80;99.90;;;;;;5054398;28;20037;-67
2021/10/14 05:08:38;;;;;;;16.88;9.27;;;6.70;99.90;;;;;;5054367;28;20025;-67
2021/10/14 05:11:10;;;;;;;16.10;8.77;;;6.80;99.90;;;;;;5054574;28;20029;-68
2021/10/14 05:13:36;;;;;;;17.17;9.20;;;7.00;99.90;;;;;;5053158;28;20036;-68
2021/10/14 05:16:02;;;;;;;19.83;9.57;;;6.90;99.90;;;;;;5054448;28;20033;-67
2021/10/14 05:18:27;;;;;;;15.10;8.43;;;6.80;99.90;;;;;;5054456;28;20048;-68
2021/10/14 05:20:53;;;;;;;16.23;9.20;;;6.90;99.90;;;;;;5054224;28;20493;-68
2021/10/14 05:23:19;;;;;;;16.90;9.38;;;6.90;99.90;;;;;;5053035;28;20033;-68
2021/10/14 05:25:45;;;;;;;21.55;8.93;;;6.90;99.90;;;;;;5054198;28;20066;-68
2021/10/14 05:28:10;;;;;;;15.98;9.18;;;6.90;99.90;;;;;;5053767;28;20025;-68
2021/10/14 05:30:37;;;;;;;17.75;8.80;;;6.90;99.90;;;;;;5054224;28;20064;-68
2021/10/14 05:33:03;;;;;;;15.13;9.50;;;6.90;99.90;;;;;;5052658;28;20604;-68
2021/10/14 05:35:29;;;;;;;15.93;8.80;;;6.80;99.90;;;;;;5054202;28;20033;-68
2021/10/14 05:37:54;;;;;;;17.10;8.95;;;6.70;99.90;;;;;;5036155;28;20033;-68
2021/10/14 05:40:20;;;;;;;15.23;9.27;;;6.70;99.90;;;;;;5052499;28;20040;-67
2021/10/14 05:42:46;;;;;;;16.95;8.45;;;6.70;99.90;;;;;;5053604;28;20037;-68
2021/10/14 05:45:13;;;;;;;14.52;8.68;;;6.60;99.90;;;;;;5053925;28;20033;-67
2021/10/14 05:47:40;;;;;;;18.38;9.52;;;6.70;99.90;;;;;;5053348;28;20033;-67
2021/10/14 05:50:07;;;;;;;19.23;9.25;;;6.60;99.90;;;;;;5053537;28;20124;-67
2021/10/14 05:52:33;;;;;;;25.05;9.88;;;6.60;99.90;;;;;;5052341;28;20079;-67
2021/10/14 05:55:01;;;;;;;19.00;8.85;;;6.70;99.90;;;;;;5052831;28;20029;-67
2021/10/14 05:57:27;;;;;;;17.77;8.45;;;6.80;99.90;;;;;;5044598;28;20554;-65
2021/10/14 05:59:55;;;;;;;19.27;7.97;;;6.80;99.90;;;;;;5048982;28;20041;-66
2021/10/14 06:02:22;;;;;;;19.52;8.80;;;6.80;99.90;;;;;;5033500;28;20040;-66
2021/10/14 06:04:49;;;;;;;21.52;9.18;;;6.80;99.90;;;;;;5049359;28;20033;-66
2021/10/14 06:07:14;;;;;;;19.67;9.38;;;6.70;99.90;;;;;;5068840;28;20025;-67
2021/10/14 06:09:40;;;;;;;17.80;9.05;;;6.70;99.90;;;;;;5068939;28;20040;-67
2021/10/14 06:12:06;;;;;;;21.85;9.57;;;6.80;99.90;;;;;;5053298;28;20104;-65
2021/10/14 06:14:32;;;;;;;16.75;8.63;;;6.80;99.90;;;;;;5053150;28;20082;-68
2021/10/14 06:16:58;;;;;;;21.52;8.85;;;6.80;99.90;;;;;;5053435;28;20021;-67
2021/10/14 06:19:24;;;;;;;18.85;9.40;;;6.80;99.90;;;;;;5052841;28;20057;-67
2021/10/14 06:21:49;;;;;;;16.80;8.73;;;6.80;99.90;;;;;;5053228;28;20079;-67
2021/10/14 06:24:15;;;;;;;17.85;8.95;;;6.80;99.90;;;;;;5052678;28;20040;-69
2021/10/14 06:26:41;;;;;;;21.60;9.05;;;6.80;99.90;;;;;;5068461;28;20037;-65
2021/10/14 06:29:07;;;;;;;33.63;10.75;;;6.80;99.90;;;;;;5051699;28;20033;-65
2021/10/14 06:31:33;;;;;;;19.42;10.23;;;6.80;99.90;;;;;;5052812;28;20028;-67
2021/10/14 06:33:59;;;;;;;19.13;8.93;;;6.80;99.90;;;;;;5052905;28;20090;-68
2021/10/14 06:36:25;;;;;;;21.40;10.10;;;6.80;99.90;;;;;;5052523;28;20044;-68
2021/10/14 06:38:51;;;;;;;18.67;9.57;;;6.80;99.90;;;;;;5052803;28;20052;-67
2021/10/14 06:41:17;;;;;;;20.33;10.27;;;6.80;99.90;;;;;;5051424;28;20614;-68
2021/10/14 06:43:43;;;;;;;18.52;10.63;;;6.80;99.90;;;;;;5052557;28;20064;-68
2021/10/14 06:46:09;;;;;;;17.10;10.77;;;6.80;99.90;;;;;;5052705;28;20029;-67
2021/10/14 06:48:35;;;;;;;16.25;10.13;;;7.00;99.90;;;;;;5051221;28;20032;-67
2021/10/14 06:51:01;;;;;;;20.20;10.18;;;7.00;99.90;;;;;;5052502;28;20033;-69
2021/10/14 06:53:26;;;;;;;17.70;10.30;;;7.00;99.90;;;;;;5051151;28;20017;-69
2021/10/14 06:55:52;;;;;;;23.92;11.25;;;7.00;99.90;;;;;;5047299;28;20056;-68
2021/10/14 06:58:18;;;;;;;19.95;10.75;;;7.00;99.90;;;;;;5032650;28;20025;-68
2021/10/14 07:00:44;;;;;;;22.30;11.63;;;7.10;99.90;;;;;;5040058;28;20033;-67
2021/10/14 07:03:10;;;;;;;25.88;12.07;;;7.10;99.90;;;;;;5050974;28;20106;-67
2021/10/14 07:05:36;;;;;;;20.98;10.88;;;7.00;99.90;;;;;;5052322;28;20029;-68
2021/10/14 07:08:02;;;;;;;24.58;11.55;;;7.20;99.90;;;;;;5051744;28;20116;-69
2021/10/14 07:10:28;;;;;;;22.00;11.07;;;7.20;99.90;;;;;;5052029;28;20036;-68
2021/10/14 07:12:53;;;;;;;20.55;10.88;;;7.20;99.90;;;;;;5052126;28;20367;-67
2021/10/14 07:15:20;;;;;;;21.13;11.45;;;7.20;99.90;;;;;;5051106;28;20094;-68
2021/10/14 07:17:46;;;;;;;25.63;11.77;;;7.10;99.90;;;;;;5050786;28;20469;-79
2021/10/14 07:20:12;;;;;;;22.08;11.07;;;7.30;99.90;;;;;;5052000;28;20040;-66
2021/10/14 07:22:38;;;;;;;20.38;11.43;;;7.40;99.90;;;;;;5051226;28;20029;-68
2021/10/14 07:25:05;;;;;;;25.48;11.63;;;7.40;99.90;;;;;;5050993;28;20508;-68
2021/10/14 07:27:31;;;;;;;18.17;10.32;;;7.50;99.90;;;;;;5051903;28;20029;-72
2021/10/14 07:29:58;;;;;;;18.60;9.88;;;7.60;99.90;;;;;;5053543;28;20103;-71
2021/10/14 07:32:23;;;;;;;18.25;9.85;;;7.60;99.90;;;;;;5071765;28;20554;-71
2021/10/14 07:34:49;;;;;;;20.45;9.73;;;7.50;99.90;;;;;;5072301;28;20045;-72
2021/10/14 07:37:19;;;;;;;21.38;10.60;;;7.50;99.90;;;;;;5072123;28;20033;-72
2021/10/14 07:39:45;;;;;;;23.02;10.45;;;7.60;99.90;;;;;;5070930;28;20032;-70
2021/10/14 07:42:11;;;;;;;19.25;10.88;;;7.70;99.90;;;;;;5087359;28;20031;-70
2021/10/14 07:44:38;;;;;;;19.27;9.82;;;7.70;99.90;;;;;;5071838;28;20041;-68
2021/10/14 07:47:05;;;;;;;22.58;11.07;;;7.70;99.90;;;;;;5072141;28;20493;-68
2021/10/14 07:49:32;;;;;;;22.92;10.93;;;7.70;99.90;;;;;;5087466;28;20604;-68
2021/10/14 07:51:57;;;;;;;17.95;9.75;;;7.60;99.90;;;;;;5087345;28;20370;-66
2021/10/14 07:54:23;;;;;;;19.55;10.23;;;7.60;99.90;;;;;;5071600;28;20040;-69
2021/10/14 07:56:50;;;;;;;22.23;11.18;;;7.70;99.90;;;;;;5087635;28;20377;-70
2021/10/14 07:59:17;;;;;;;19.83;11.25;;;7.70;99.90;;;;;;5071914;28;20448;-68
2021/10/14 08:01:43;;;;;;;21.60;10.43;;;7.70;99.90;;;;;;5053816;28;20073;-67
2021/10/14 08:04:09;;;;;;;17.05;9.90;;;7.70;99.90;;;;;;5067319;28;20040;-67
2021/10/14 08:06:38;;;;;;;21.27;10.27;;;7.80;99.90;;;;;;5051604;28;20029;-67
2021/10/14 08:09:04;;;;;;;17.42;10.02;;;7.90;99.90;;;;;;5066766;28;20045;-69
2021/10/14 08:11:30;;;;;;;19.77;10.13;;;7.90;99.90;;;;;;5067255;28;20115;-69
2021/10/14 08:13:56;;;;;;;20.70;9.85;;;8.00;99.90;;;;;;5050752;28;20033;-69
2021/10/14 08:16:22;;;;;;;19.88;10.18;;;8.10;99.90;;;;;;5051544;28;20025;-69
2021/10/14 08:18:48;;;;;;;16.48;9.45;;;8.30;99.90;;;;;;5051610;28;20091;-70
2021/10/14 08:21:14;;;;;;;18.08;9.63;;;8.30;99.90;;;;;;5053865;28;20037;-70
2021/10/14 08:23:40;;;;;;;15.45;9.18;;;8.30;99.90;;;;;;5071005;28;20070;-70
2021/10/14 08:26:08;;;;;;;18.30;9.68;;;8.50;99.90;;;;;;5055260;28;20045;-70
2021/10/14 08:28:34;;;;;;;18.35;9.75;;;8.60;99.90;;;;;;5070236;28;20044;-69
2021/10/14 08:31:00;;;;;;;16.95;8.98;;;8.60;99.90;;;;;;5066409;28;20071;-71
2021/10/14 08:33:26;;;;;;;20.10;9.23;;;8.70;99.90;;;;;;5042100;28;20029;-73
2021/10/14 08:35:52;;;;;;;21.55;9.70;;;8.70;99.90;;;;;;5034235;28;20037;-73
2021/10/14 08:38:18;;;;;;;20.65;9.93;;;8.70;99.90;;;;;;5033450;28;20124;-73
2021/10/14 08:40:46;;;;;;;19.88;9.77;;;8.80;99.90;;;;;;5050139;28;20366;-73
2021/10/14 08:43:17;;;;;;;16.67;9.45;;;8.90;99.90;;;;;;5033908;28;20446;-72
2021/10/14 08:45:46;;;;;;;14.73;9.40;;;8.90;99.90;;;;;;5034846;28;20116;-73
2021/10/14 08:48:13;;;;;;;19.40;9.43;;;8.90;99.90;;;;;;5034765;28;20045;-73
2021/10/14 08:50:42;;;;;;;19.33;9.13;;;9.20;99.90;;;;;;5050059;28;20405;-73
2021/10/14 08:53:09;;;;;;;15.57;8.82;;;9.20;99.90;;;;;;5050164;28;20083;-73
2021/10/14 08:55:38;;;;;;;16.65;7.95;;;9.40;99.90;;;;;;5034276;28;20065;-73
2021/10/14 08:58:08;;;;;;;19.42;8.38;;;9.50;99.90;;;;;;5034871;28;20029;-73
2021/10/14 09:00:35;;;;;;;15.07;8.13;;;9.60;99.90;;;;;;5034801;28;20033;-73
2021/10/14 09:03:34;;;;;;;16.08;8.90;;;9.70;99.90;;;;;;5050141;28;20033;-73
2021/10/14 09:06:00;;;;;;;15.00;8.43;;;9.80;99.90;;;;;;5034675;28;20470;-73
2021/10/14 09:08:49;;;;;;;13.98;7.72;;;9.80;99.90;;;;;;5049950;28;20041;-73
2021/10/14 09:11:27;;;;;;;16.13;8.20;;;10.00;99.90;;;;;;5034469;28;20390;-72
2021/10/14 09:13:59;;;;;;;14.70;8.35;;;9.80;99.90;;;;;;5048473;28;20029;-73
2021/10/14 09:16:40;;;;;;;17.08;8.50;;;10.10;99.90;;;;;;5049760;28;20029;-73
2021/10/14 09:19:21;;;;;;;17.23;7.57;;;10.00;99.90;;;;;;5049737;28;20048;-73
2021/10/14 09:22:00;;;;;;;16.15;8.05;;;10.20;99.90;;;;;;5033132;28;20046;-73
2021/10/14 09:24:35;;;;;;;13.40;6.97;;;10.20;99.90;;;;;;5048172;28;20553;-73
2021/10/14 09:27:12;;;;;;;17.50;8.02;;;10.50;99.90;;;;;;5049199;28;20025;-71
2021/10/14 09:29:39;;;;;;;16.63;8.55;;;10.30;99.90;;;;;;5036661;28;21589;-72
2021/10/14 09:32:15;;;;;;;14.32;7.78;;;10.50;99.90;;;;;;5053529;28;20029;-73
2021/10/14 09:34:46;;;;;;;17.27;8.68;;;10.40;99.90;;;;;;5069022;28;20066;-71
2021/10/14 09:37:18;;;;;;;;;;;10.40;99.90;;;;;;5069882;28;20060;-73
2021/10/14 09:40:02;;;;;;;;;;;10.50;99.90;;;;;;5044555;28;19909;-72
2021/10/14 09:42:55;;;;;;;11.68;6.97;;;10.50;99.90;;;;;;5048267;28;20366;-71
2021/10/14 09:45:27;;;;;;;12.88;7.28;;;10.60;99.90;;;;;;5033682;28;20434;-72
2021/10/14 09:48:11;;;;;;;10.15;6.60;;;10.80;99.90;;;;;;5034164;28;20120;-72
2021/10/14 09:50:46;;;;;;;12.07;6.57;;;10.90;99.90;;;;;;5033693;28;20095;-72
2021/10/14 09:53:18;;;;;;;14.65;6.60;;;10.80;99.90;;;;;;5049442;28;20056;-72
2021/10/14 09:55:46;;;;;;;16.25;6.80;;;11.10;99.90;;;;;;5033876;28;20060;-72
2021/10/14 09:58:12;;;;;;;9.95;6.40;;;11.20;99.90;;;;;;5034029;28;20033;-72
2021/10/14 10:00:40;;;;;;;13.75;6.45;;;11.20;99.90;;;;;;5049049;28;20429;-72
2021/10/14 10:03:20;;;;;;;11.98;6.47;;;11.30;99.90;;;;;;5033486;28;20064;-72
2021/10/14 10:05:52;;;;;;;11.65;6.32;;;11.40;99.90;;;;;;5033531;28;20021;-72
2021/10/14 10:08:27;;;;;;;11.32;6.25;;;11.50;99.90;;;;;;5033716;28;20085;-71
2021/10/14 10:10:57;;;;;;;14.70;6.47;;;11.40;99.90;;;;;;5048933;28;20120;-73
2021/10/14 10:13:24;;;;;;;9.25;5.45;;;11.60;99.90;;;;;;5056113;28;20021;-73
2021/10/14 10:15:50;;;;;;;12.70;5.97;;;11.60;99.90;;;;;;5068651;28;20032;-71
2021/10/14 10:18:28;;;;;;;8.70;5.68;;;11.90;99.90;;;;;;5053250;28;20123;-71
2021/10/14 10:20:59;;;;;;;11.20;5.88;;;12.00;99.90;;;;;;5053520;28;20040;-72
2021/10/14 10:23:43;;;;;;;10.13;5.13;;;11.80;99.90;;;;;;5053272;28;20036;-71
2021/10/14 10:29:04;;;;;;;10.18;5.53;;;12.10;99.90;;;;;;5052931;28;20397;-71
2021/10/14 10:31:53;;;;;;;13.97;5.33;;;12.30;99.90;;;;;;5053058;28;20048;-72
2021/10/14 10:34:43;;;;;;;10.63;5.45;;;12.60;99.90;;;;;;5053041;28;20414;-72
2021/10/14 10:37:23;;;;;;;12.85;5.47;;;12.70;99.90;;;;;;5068160;28;20033;-72
2021/10/14 10:40:22;;;;;;;9.43;6.03;;;12.50;99.90;;;;;;5067285;28;20029;-71
2021/10/14 10:43:14;;;;;;;10.23;4.53;;;12.60;99.90;;;;;;5044555;28;20037;-72
2021/10/14 10:45:52;;;;;;;11.50;5.97;;;12.70;99.90;;;;;;5043255;28;20486;-73
2021/10/14 10:48:43;;;;;;;11.65;5.60;;;12.70;99.90;;;;;;5040240;28;20034;-71
2021/10/14 10:51:28;;;;;;;11.10;4.90;;;12.60;99.90;;;;;;5044920;28;20029;-70
2021/10/14 10:53:55;;;;;;;10.07;5.10;;;12.80;99.90;;;;;;5049439;28;20030;-71
2021/10/14 10:56:38;;;;;;;11.77;5.30;;;12.90;99.90;;;;;;5052543;28;20036;-72
2021/10/14 10:59:04;;;;;;;13.13;4.88;;;13.00;99.90;;;;;;5052528;28;20041;-69
2021/10/14 11:01:30;;;;;;;11.98;5.32;;;12.90;99.90;;;;;;5050897;28;20033;-69
2021/10/14 11:04:06;;;;;;;11.13;5.07;;;13.10;99.90;;;;;;5051339;28;20486;-72
2021/10/14 11:06:34;;;;;;;12.57;6.97;;;13.20;99.90;;;;;;5043640;28;20037;-71
2021/10/14 11:09:11;;;;;;;9.63;5.28;;;13.10;99.90;;;;;;5056236;28;20053;-72
2021/10/14 11:11:37;;;;;;;13.60;5.20;;;13.30;99.90;;;;;;5032017;28;20040;-67
2021/10/14 11:14:05;;;;;;;8.93;4.75;;;13.30;99.90;;;;;;5032275;28;20038;-66
2021/10/14 11:16:32;;;;;;;7.38;4.70;;;13.40;99.90;;;;;;5032087;28;20026;-66
2021/10/14 11:19:00;;;;;;;9.18;4.53;;;13.40;99.90;;;;;;5058562;28;20046;-69
2021/10/14 11:21:27;;;;;;;10.90;5.40;;;13.40;99.90;;;;;;5047649;28;20375;-68
2021/10/14 11:23:57;;;;;;;10.07;4.50;;;13.50;99.90;;;;;;5032208;28;20061;-65
2021/10/14 11:26:37;;;;;;;13.20;4.75;;;13.70;99.90;;;;;;5047051;28;20029;-69
2021/10/14 11:29:18;;;;;;;9.63;4.60;;;13.80;99.90;;;;;;5046109;28;20080;-70
2021/10/14 11:31:50;;;;;;;14.05;5.13;;;13.50;99.90;;;;;;5046997;28;20052;-69
2021/10/14 11:34:20;;;;;;;14.80;5.30;;;13.60;99.90;;;;;;5046914;28;20021;-70
2021/10/14 11:37:02;;;;;;;8.77;4.95;;;13.60;99.90;;;;;;5046521;28;20379;-69
2021/10/14 11:39:48;;;;;;;9.88;4.30;;;13.80;99.90;;;;;;5031982;28;20036;-69
2021/10/14 11:42:20;;;;;;;9.93;4.10;;;14.20;99.90;;;;;;5030697;28;20116;-69
2021/10/14 11:44:57;;;;;;;8.45;4.72;;;14.40;99.90;;;;;;5030620;28;20033;-69
2021/10/14 11:47:24;;;;;;;7.75;5.00;;;14.30;99.90;;;;;;5038065;28;20021;-68
2021/10/14 11:50:06;;;;;;;8.98;4.57;;;14.70;99.90;;;;;;5066788;28;20217;-68
2021/10/14 11:52:33;;;;;;;10.95;4.95;;;14.40;99.90;;;;;;5042863;28;20037;-68
2021/10/14 11:55:07;;;;;;;9.95;5.03;;;14.70;99.90;;;;;;5043191;28;20078;-68
2021/10/14 11:57:33;;;;;;;9.20;5.40;;;15.00;99.90;;;;;;5050851;28;20617;-68
2021/10/14 12:00:00;;;;;;;7.45;4.53;;;14.70;99.90;;;;;;5035930;28;20519;-68
2021/10/14 12:02:31;;;;;;;7.85;3.53;;;14.80;99.90;;;;;;5050818;28;20037;-68
2021/10/14 12:05:01;;;;;;;7.63;3.58;;;15.20;99.90;;;;;;5050592;28;20052;-68
2021/10/14 12:07:29;;;;;;;8.95;4.00;;;15.30;99.90;;;;;;5035588;28;20033;-68
2021/10/14 12:09:57;;;;;;;9.90;4.80;;;15.10;99.90;;;;;;5034241;28;20036;-69
2021/10/14 12:12:26;;;;;;;7.75;3.58;;;14.90;99.90;;;;;;5030724;28;20038;-69
2021/10/14 12:15:06;;;;;;;7.50;3.65;;;15.10;99.90;;;;;;5056169;28;20500;-68
2021/10/14 12:17:44;;;;;;;8.77;4.65;;;15.40;99.90;;;;;;5060273;28;20481;-68
2021/10/14 12:20:13;;;;;;;8.27;4.30;;;15.20;99.90;;;;;;5074327;28;20039;-68
2021/10/14 12:22:48;;;;;;;11.48;3.80;;;14.80;99.90;;;;;;5075434;28;20036;-68
2021/10/14 12:25:34;;;;;;;7.45;3.55;;;14.80;99.90;;;;;;5057288;28;20444;-68
2021/10/14 12:28:01;;;;;;;9.90;4.13;;;15.10;99.90;;;;;;5055824;28;20040;-68
2021/10/14 12:30:35;;;;;;;9.02;4.28;;;15.20;99.90;;;;;;5055173;28;20090;-68
2021/10/14 12:33:10;;;;;;;6.70;3.75;;;15.30;99.90;;;;;;5070933;28;20029;-68
2021/10/14 12:35:40;;;;;;;8.30;3.50;;;16.00;99.90;;;;;;5055107;28;20422;-68
2021/10/14 12:38:11;;;;;;;9.43;4.00;;;16.20;99.90;;;;;;5055072;28;20048;-66
2021/10/14 12:40:47;;;;;;;9.60;3.78;;;16.00;99.90;;;;;;5046843;28;20025;-67
2021/10/14 12:43:21;;;;;;;7.00;3.78;;;16.30;99.90;;;;;;5033650;28;20134;-67
2021/10/14 12:51:24;;;;;;;11.02;3.47;;;16.20;99.90;;;;;;5050955;28;20044;-66
2021/10/14 12:53:59;;;;;;;10.32;3.75;;;15.70;99.90;;;;;;5055457;28;20405;-66
2021/10/14 12:56:46;;;;;;;9.00;3.60;;;15.80;99.90;;;;;;5053493;28;20037;-66
2021/10/14 12:59:15;;;;;;;11.10;4.55;;;15.60;99.90;;;;;;5045554;28;20032;-67